createdAt,value
2022-11-29T00:00:15.515Z,4.08
2022-11-29T00:04:43.775Z,4.07
2022-11-29T00:08:52.257Z,4.06
2022-11-29T00:12:59.879Z,4.03
2022-11-29T00:17:07.833Z,3.96
2022-11-29T00:21:15.267Z,3.88
2022-11-29T00:25:23.237Z,3.77
2022-11-29T00:29:32.291Z,3.74
2022-11-29T00:33:39.961Z,3.77
2022-11-29T00:37:47.461Z,3.78
2022-11-29T00:41:55.791Z,3.75
2022-11-29T00:46:03.793Z,3.73
2022-11-29T00:50:12.922Z,3.72
2022-11-29T00:54:20.626Z,3.69
2022-11-29T00:58:28.337Z,3.72
2022-11-29T01:02:36.050Z,3.75
2022-11-29T01:06:44.325Z,3.75
2022-11-29T01:10:52.021Z,3.73
2022-11-29T01:15:00.879Z,3.67
2022-11-29T01:19:11.471Z,3.62
2022-11-29T01:23:18.870Z,3.56
2022-11-29T01:27:26.329Z,3.53
2022-11-29T01:31:36.649Z,3.55
2022-11-29T01:35:50.218Z,3.56
2022-11-29T01:39:57.851Z,3.54
2022-11-29T01:44:08.261Z,3.53
2022-11-29T01:48:17.618Z,3.51
2022-11-29T01:52:27.853Z,3.50
2022-11-29T01:56:36.587Z,3.51
2022-11-29T02:00:43.885Z,3.52
2022-11-29T02:04:52.827Z,3.54
2022-11-29T02:09:01.512Z,3.53
2022-11-29T02:13:14.816Z,3.51
2022-11-29T02:17:29.865Z,3.50
2022-11-29T02:21:44.061Z,3.46
2022-11-29T02:26:03.941Z,3.47
2022-11-29T02:30:35.867Z,3.53
2022-11-29T02:34:55.074Z,3.60
2022-11-29T02:39:35.726Z,3.68
2022-11-29T02:44:10.551Z,3.73
2022-11-29T02:48:34.690Z,3.76
2022-11-29T02:52:49.877Z,3.78
2022-11-29T02:57:00.476Z,3.79
2022-11-29T03:01:16.848Z,3.82
2022-11-29T03:05:30.465Z,3.86
2022-11-29T03:09:44.187Z,3.90
2022-11-29T03:13:58.388Z,3.94
2022-11-29T03:18:17.197Z,3.93
2022-11-29T03:22:36.550Z,3.91
2022-11-29T03:26:47.966Z,3.87
2022-11-29T03:31:00.131Z,3.83
2022-11-29T03:35:12.012Z,3.79
2022-11-29T03:39:26.557Z,3.77
2022-11-29T03:43:41.366Z,3.80
2022-11-29T03:47:58.033Z,3.84
2022-11-29T03:52:10.037Z,3.85
2022-11-29T03:56:32.284Z,3.85
2022-11-29T04:00:57.525Z,3.82
2022-11-29T04:05:32.974Z,3.80
2022-11-29T04:09:57.954Z,3.76
2022-11-29T04:14:35.129Z,3.68
2022-11-29T04:23:55.772Z,3.68
2022-11-29T04:28:16.827Z,3.63
2022-11-29T04:32:40.471Z,3.56
2022-11-29T04:37:02.593Z,3.52
2022-11-29T04:41:21.850Z,3.52
2022-11-29T04:45:58.900Z,3.56
2022-11-29T04:50:18.598Z,3.62
2022-11-29T04:54:32.501Z,3.65
2022-11-29T04:58:42.798Z,3.65
2022-11-29T05:02:55.953Z,3.64
2022-11-29T05:07:07.637Z,3.60
2022-11-29T05:11:26.472Z,3.62
2022-11-29T05:15:56.632Z,3.62
2022-11-29T05:20:23.965Z,3.68
2022-11-29T05:24:43.176Z,3.72
2022-11-29T05:28:56.094Z,3.73
2022-11-29T05:33:11.787Z,3.75
2022-11-29T05:37:28.401Z,3.76
2022-11-29T05:41:47.757Z,3.77
2022-11-29T05:46:01.538Z,3.81
2022-11-29T05:50:16.306Z,3.87
2022-11-29T05:54:29.858Z,3.91
2022-11-29T05:58:48.005Z,3.95
2022-11-29T06:03:00.815Z,3.98
2022-11-29T06:07:13.011Z,3.99
2022-11-29T06:11:25.228Z,4.05
2022-11-29T06:15:48.843Z,4.12
2022-11-29T06:20:09.294Z,4.17
2022-11-29T06:24:27.344Z,4.20
2022-11-29T06:28:43.764Z,4.20
2022-11-29T06:32:56.498Z,4.20
2022-11-29T06:37:10.173Z,4.19
2022-11-29T06:41:22.519Z,4.22
2022-11-29T06:45:31.231Z,4.28
2022-11-29T06:49:43.704Z,4.30
2022-11-29T06:53:55.490Z,4.29
2022-11-29T06:58:11.397Z,4.28
2022-11-29T07:02:33.681Z,4.28
2022-11-29T07:06:43.122Z,4.31
2022-11-29T07:10:54.244Z,4.35
2022-11-29T07:15:03.198Z,4.40
2022-11-29T07:19:16.932Z,4.43
2022-11-29T07:23:32.686Z,4.45
2022-11-29T07:27:54.899Z,4.45
2022-11-29T07:32:09.301Z,4.42
2022-11-29T07:36:20.211Z,4.42
2022-11-29T07:40:37.334Z,4.48
2022-11-29T07:44:52.325Z,4.56
2022-11-29T07:49:00.492Z,4.61
2022-11-29T07:53:08.432Z,4.65
2022-11-29T07:57:16.151Z,4.67
2022-11-29T08:01:23.548Z,4.65
2022-11-29T08:05:31.309Z,4.64
2022-11-29T08:09:38.998Z,4.66
2022-11-29T08:13:46.866Z,4.69
2022-11-29T08:17:55.607Z,4.73
2022-11-29T08:22:03.955Z,4.78
2022-11-29T08:26:12.845Z,4.81
2022-11-29T08:30:22.517Z,4.84
2022-11-29T08:34:29.999Z,4.85
2022-11-29T08:38:37.574Z,4.84
2022-11-29T08:42:45.553Z,4.89
2022-11-29T08:47:10.782Z,4.94
2022-11-29T08:51:18.667Z,5.03
2022-11-29T08:55:27.789Z,5.09
2022-11-29T08:59:35.338Z,5.13
2022-11-29T09:04:02.916Z,5.17
2022-11-29T09:08:10.771Z,5.22
2022-11-29T09:12:18.324Z,5.21
2022-11-29T09:16:27.882Z,5.22
2022-11-29T09:20:35.418Z,5.25
2022-11-29T09:24:43.127Z,5.28
2022-11-29T09:28:52.483Z,5.31
2022-11-29T09:33:00.720Z,5.34
2022-11-29T09:37:09.439Z,5.34
2022-11-29T09:41:41.968Z,5.36
2022-11-29T09:45:55.275Z,5.35
2022-11-29T09:50:21.726Z,5.38
2022-11-29T09:54:39.487Z,5.47
2022-11-29T09:58:51.458Z,5.53
2022-11-29T10:03:03.066Z,5.58
2022-11-29T10:07:18.185Z,5.64
2022-11-29T10:11:31.799Z,5.66
2022-11-29T10:15:42.735Z,5.67
2022-11-29T10:19:54.286Z,5.69
2022-11-29T10:24:05.777Z,5.74
2022-11-29T10:28:17.676Z,5.82
2022-11-29T10:32:27.929Z,5.88
2022-11-29T10:36:41.314Z,5.89
2022-11-29T10:40:51.271Z,5.88
2022-11-29T10:44:59.696Z,5.88
2022-11-29T10:49:14.305Z,5.87
2022-11-29T10:53:24.585Z,5.91
2022-11-29T10:57:32.781Z,6.01
2022-11-29T11:01:42.819Z,6.06
2022-11-29T11:06:02.563Z,6.05
2022-11-29T11:10:22.837Z,6.04
2022-11-29T11:14:33.099Z,6.07
2022-11-29T11:18:41.180Z,6.07
2022-11-29T11:23:00.646Z,6.08
2022-11-29T11:27:08.041Z,6.11
2022-11-29T11:31:16.307Z,6.15
2022-11-29T11:35:26.986Z,6.23
2022-11-29T11:39:34.772Z,6.34
2022-11-29T11:43:42.692Z,6.40
2022-11-29T11:47:52.098Z,6.40
2022-11-29T11:51:59.957Z,6.41
2022-11-29T11:56:10.107Z,6.43
2022-11-29T12:05:17.558Z,6.58
2022-11-29T12:09:32.728Z,6.73
2022-11-29T12:13:44.898Z,6.91
2022-11-29T12:17:54.572Z,7.01
2022-11-29T12:22:08.305Z,7.09
2022-11-29T12:26:48.898Z,7.17
2022-11-29T12:30:56.721Z,7.20
2022-11-29T12:35:18.989Z,7.23
2022-11-29T12:39:39.260Z,7.24
2022-11-29T12:43:55.440Z,7.23
2022-11-29T12:48:10.523Z,7.20
2022-11-29T12:52:25.643Z,7.21
2022-11-29T12:56:38.494Z,7.21
2022-11-29T13:00:51.770Z,7.17
2022-11-29T13:05:03.687Z,7.13
2022-11-29T13:09:35.437Z,7.09
2022-11-29T13:13:44.925Z,6.99
2022-11-29T13:17:59.150Z,6.89
2022-11-29T13:22:11.048Z,6.79
2022-11-29T13:26:19.132Z,6.74
2022-11-29T13:30:26.889Z,6.69
2022-11-29T13:34:37.218Z,6.68
2022-11-29T13:38:47.389Z,6.67
2022-11-29T13:42:59.982Z,6.65
2022-11-29T13:47:12.516Z,6.62
2022-11-29T13:51:32.929Z,6.58
2022-11-29T13:55:48.131Z,6.54
2022-11-29T13:59:55.771Z,6.51
2022-11-29T14:04:12.479Z,6.45
2022-11-29T14:08:54.485Z,6.37
2022-11-29T14:13:02.141Z,6.37
2022-11-29T14:17:48.728Z,6.35
2022-11-29T14:22:31.981Z,6.30
2022-11-29T14:26:39.296Z,6.24
2022-11-29T14:30:55.440Z,6.17
2022-11-29T14:35:07.755Z,6.10
2022-11-29T14:39:31.867Z,6.05
2022-11-29T14:43:41.794Z,5.99
2022-11-29T14:47:52.048Z,5.93
2022-11-29T14:52:33.628Z,5.94
2022-11-29T14:56:44.533Z,5.96
2022-11-29T15:01:10.909Z,5.97
2022-11-29T15:05:21.650Z,5.96
2022-11-29T15:09:31.338Z,5.97
2022-11-29T15:13:47.766Z,5.98
2022-11-29T15:18:01.160Z,5.95
2022-11-29T15:22:15.803Z,5.93
2022-11-29T15:26:25.005Z,5.91
2022-11-29T15:30:35.715Z,5.94
2022-11-29T15:34:50.829Z,5.92
2022-11-29T15:39:01.896Z,5.93
2022-11-29T15:43:18.388Z,5.93
2022-11-29T15:47:28.086Z,5.89
2022-11-29T15:51:38.772Z,5.82
2022-11-29T15:55:49.860Z,5.75
2022-11-29T15:59:59.936Z,5.71
2022-11-29T16:04:08.790Z,5.69
2022-11-29T16:08:19.554Z,5.67
2022-11-29T16:12:27.484Z,5.69
2022-11-29T16:16:35.731Z,5.75
2022-11-29T16:20:45.615Z,5.77
2022-11-29T16:25:06.305Z,5.75
2022-11-29T16:29:24.772Z,5.73
2022-11-29T16:33:32.798Z,5.69
2022-11-29T16:37:43.961Z,5.62
2022-11-29T16:42:05.930Z,5.55
2022-11-29T16:46:34.853Z,5.52
2022-11-29T16:50:42.324Z,5.51
2022-11-29T16:54:50.569Z,5.51
2022-11-29T16:59:25.255Z,5.54
2022-11-29T17:03:30.251Z,5.51
2022-11-29T17:07:39.558Z,5.50
2022-11-29T17:11:47.632Z,5.47
2022-11-29T17:15:55.319Z,5.44
2022-11-29T17:20:02.670Z,5.36
2022-11-29T17:24:13.563Z,5.32
2022-11-29T17:28:20.877Z,5.31
2022-11-29T17:32:28.387Z,5.30
2022-11-29T17:36:36.264Z,5.31
2022-11-29T17:40:45.078Z,5.30
2022-11-29T17:44:54.609Z,5.28
2022-11-29T17:49:04.111Z,5.26
2022-11-29T17:53:11.739Z,5.23
2022-11-29T17:57:20.145Z,5.20
2022-11-29T18:01:47.477Z,5.15
2022-11-29T18:06:04.551Z,5.07
2022-11-29T18:10:13.134Z,5.02
2022-11-29T18:14:23.053Z,4.99
2022-11-29T18:18:30.441Z,4.98
2022-11-29T18:22:38.108Z,4.94
2022-11-29T18:26:46.058Z,4.91
2022-11-29T18:30:54.931Z,4.86
2022-11-29T18:35:05.004Z,4.82
2022-11-29T18:39:15.173Z,4.75
2022-11-29T18:43:22.597Z,4.68
2022-11-29T18:47:33.128Z,4.62
2022-11-29T18:51:42.477Z,4.58
2022-11-29T18:55:50.372Z,4.57
2022-11-29T18:59:57.787Z,4.59
2022-11-29T19:04:05.402Z,4.62
2022-11-29T19:08:13.311Z,4.64
2022-11-29T19:12:21.078Z,4.63
2022-11-29T19:16:31.175Z,4.61
2022-11-29T19:20:38.896Z,4.55
2022-11-29T19:24:47.210Z,4.48
2022-11-29T19:28:55.595Z,4.40
2022-11-29T19:33:03.255Z,4.33
2022-11-29T19:37:11.209Z,4.26
2022-11-29T19:41:20.616Z,4.27
2022-11-29T19:45:28.366Z,4.30
2022-11-29T19:49:46.134Z,4.30
2022-11-29T19:53:56.996Z,4.30
2022-11-29T19:58:04.582Z,4.24
2022-11-29T20:02:12.758Z,4.18
2022-11-29T20:06:21.031Z,4.10
2022-11-29T20:10:29.039Z,4.03
2022-11-29T20:14:36.875Z,3.98
2022-11-29T20:18:50.623Z,3.96
2022-11-29T20:22:58.842Z,3.98
2022-11-29T20:27:06.884Z,4.04
2022-11-29T20:31:16.825Z,4.09
2022-11-29T20:35:25.473Z,4.10
2022-11-29T20:39:42.095Z,4.06
2022-11-29T20:43:54.923Z,4.02
2022-11-29T20:48:09.741Z,3.96
2022-11-29T20:52:32.200Z,3.87
2022-11-29T20:56:39.655Z,3.79
2022-11-29T21:00:47.384Z,3.70
2022-11-29T21:04:56.492Z,3.57
2022-11-29T21:09:04.185Z,3.49
2022-11-29T21:13:14.228Z,3.41
2022-11-29T21:17:24.830Z,3.32
2022-11-29T21:21:39.388Z,3.20
2022-11-29T21:25:54.550Z,3.07
2022-11-29T21:30:05.572Z,2.95
2022-11-29T21:34:13.288Z,2.84
2022-11-29T21:38:23.661Z,2.75
2022-11-29T21:42:31.300Z,2.71
2022-11-29T21:46:39.368Z,2.66
2022-11-29T21:50:52.109Z,2.56
2022-11-29T21:54:59.964Z,2.51
2022-11-29T21:59:07.449Z,2.41
2022-11-29T22:03:15.376Z,2.28
2022-11-29T22:07:23.010Z,2.22
2022-11-29T22:11:34.548Z,2.14
2022-11-29T22:15:42.568Z,2.09
2022-11-29T22:19:50.805Z,2.06
2022-11-29T22:23:58.342Z,2.01
2022-11-29T22:28:05.932Z,1.90
2022-11-29T22:32:13.701Z,1.86
2022-11-29T22:36:21.626Z,1.78
2022-11-29T22:40:29.401Z,1.75
2022-11-29T22:44:37.516Z,1.74
2022-11-29T22:48:45.595Z,1.73
2022-11-29T22:52:52.724Z,1.70
2022-11-29T22:57:00.470Z,1.64
2022-11-29T23:01:12.310Z,1.57
2022-11-29T23:05:21.271Z,1.50
2022-11-29T23:09:28.400Z,1.47
2022-11-29T23:13:37.401Z,1.45
2022-11-29T23:17:45.453Z,1.47
2022-11-29T23:21:53.281Z,1.47
2022-11-29T23:26:01.259Z,1.44
2022-11-29T23:30:11.797Z,1.41
2022-11-29T23:34:19.935Z,1.38
2022-11-29T23:38:27.897Z,1.34
2022-11-29T23:42:35.568Z,1.33
2022-11-29T23:46:42.928Z,1.37
2022-11-29T23:50:51.088Z,1.35
2022-11-29T23:54:58.729Z,1.34
2022-11-29T23:59:07.136Z,1.31
